createdAt,value
2019-03-10T00:00:21.032Z,74.05
2019-03-10T00:01:21.029Z,74
2019-03-10T00:02:21.006Z,74
2019-03-10T00:03:21.022Z,74.07
2019-03-10T00:04:21.038Z,74.11
2019-03-10T00:05:21.019Z,74.05
2019-03-10T00:06:21.033Z,74.11
2019-03-10T00:07:21.005Z,74.25
2019-03-10T00:08:21.022Z,74.29
2019-03-10T00:09:21.059Z,74.23
2019-03-10T00:10:21.002Z,74.2
2019-03-10T00:11:21.019Z,74.05
2019-03-10T00:12:21.036Z,73.96
2019-03-10T00:13:21.015Z,74.01
2019-03-10T00:14:21.228Z,74.06
2019-03-10T00:15:20.993Z,74.04
2019-03-10T00:16:21.070Z,74.19
2019-03-10T00:17:21.005Z,74.19
2019-03-10T00:18:21.012Z,74.16
2019-03-10T00:19:21.019Z,74.16
2019-03-10T00:20:20.984Z,74.15
2019-03-10T00:21:21.001Z,74.23
2019-03-10T00:22:20.997Z,74.24
2019-03-10T00:23:20.989Z,74.41
2019-03-10T00:24:20.987Z,74.43
2019-03-10T00:25:21.039Z,74.43
2019-03-10T00:26:21.415Z,74.41
2019-03-10T00:27:21.015Z,74.53
2019-03-10T00:28:20.997Z,74.41
2019-03-10T00:29:20.985Z,74.66
2019-03-10T00:30:21.005Z,74.54
2019-03-10T00:31:20.969Z,74.64
2019-03-10T00:32:20.975Z,74.7
2019-03-10T00:33:21.029Z,74.67
2019-03-10T00:34:20.963Z,74.71
2019-03-10T00:35:20.983Z,74.85
2019-03-10T00:36:21.279Z,74.75
2019-03-10T00:37:20.979Z,74.82
2019-03-10T00:38:21.091Z,74.83
2019-03-10T00:39:20.973Z,75.17
2019-03-10T00:40:20.975Z,75.31
2019-03-10T00:41:20.965Z,75.23
2019-03-10T00:42:21.001Z,75.27
2019-03-10T00:43:20.964Z,75.32
2019-03-10T00:44:20.991Z,75.31
2019-03-10T00:45:20.981Z,75.43
2019-03-10T00:46:20.956Z,75.32
2019-03-10T00:47:20.967Z,75.58
2019-03-10T00:48:20.955Z,75.7
2019-03-10T00:49:20.962Z,76.01
2019-03-10T00:50:20.970Z,75.98
2019-03-10T00:51:20.977Z,76.34
2019-03-10T00:52:20.963Z,76.34
2019-03-10T00:53:20.958Z,76.25
2019-03-10T00:54:20.936Z,76.4
2019-03-10T00:55:20.958Z,76.37
2019-03-10T00:56:20.950Z,76.15
2019-03-10T00:57:20.956Z,76.05
2019-03-10T00:58:21.887Z,76.11
2019-03-10T00:59:20.960Z,76.45
2019-03-10T01:00:21.063Z,76.53
2019-03-10T01:01:20.948Z,76.61
2019-03-10T01:02:20.932Z,76.41
2019-03-10T01:03:20.934Z,76.61
2019-03-10T01:04:20.929Z,76.67
2019-03-10T01:05:20.970Z,76.86
2019-03-10T01:06:20.953Z,76.74
2019-03-10T01:07:20.951Z,76.5
2019-03-10T01:08:22.200Z,76.93
2019-03-10T01:09:20.954Z,76.85
2019-03-10T01:10:20.926Z,76.81
2019-03-10T01:11:20.926Z,76.81
2019-03-10T01:12:20.933Z,76.95
2019-03-10T01:13:20.942Z,76.91
2019-03-10T01:14:21.027Z,76.97
2019-03-10T01:15:20.931Z,77.18
2019-03-10T01:16:20.929Z,77.13
2019-03-10T01:17:20.967Z,77.43
2019-03-10T01:18:20.923Z,77.19
2019-03-10T01:19:20.925Z,77.56
2019-03-10T01:20:20.932Z,77.57
2019-03-10T01:21:20.969Z,77.58
2019-03-10T01:22:20.916Z,77.38
2019-03-10T01:23:20.919Z,77.87
2019-03-10T01:24:20.922Z,77.75
2019-03-10T01:25:20.930Z,77.62
2019-03-10T01:26:20.927Z,77.55
2019-03-10T01:27:20.960Z,77.66
2019-03-10T01:28:20.937Z,77.73
2019-03-10T01:29:20.918Z,77.65
2019-03-10T01:30:20.924Z,77.98
2019-03-10T01:31:20.915Z,77.84
2019-03-10T01:32:20.911Z,78.04
2019-03-10T01:33:20.924Z,78.31
2019-03-10T01:34:20.900Z,78.1
2019-03-10T01:35:20.898Z,78.2
2019-03-10T01:36:20.891Z,78.06
2019-03-10T01:37:20.914Z,78.13
2019-03-10T01:38:20.896Z,78.16
2019-03-10T01:39:20.942Z,78.17
2019-03-10T01:40:20.900Z,78.26
2019-03-10T01:41:20.903Z,78.12
2019-03-10T01:42:21.186Z,78.12
2019-03-10T01:43:20.883Z,78.04
2019-03-10T01:44:20.870Z,77.94
2019-03-10T01:45:20.897Z,77.99
2019-03-10T01:46:20.874Z,78.12
2019-03-10T01:47:20.889Z,77.95
2019-03-10T01:48:20.882Z,78.1
2019-03-10T01:49:20.875Z,78.11
2019-03-10T01:50:20.878Z,77.92
2019-03-10T01:51:20.878Z,78.27
2019-03-10T01:52:20.886Z,78.58
2019-03-10T01:53:26.170Z,78.58
2019-03-10T01:54:21.261Z,78.44
2019-03-10T01:55:20.899Z,78.33
2019-03-10T01:56:20.894Z,78.39
2019-03-10T01:57:20.867Z,78.39
2019-03-10T01:58:20.863Z,78.51
2019-03-10T01:59:20.931Z,78.4
2019-03-10T02:00:20.894Z,78.31
2019-03-10T02:01:20.850Z,78.45
2019-03-10T02:02:26.154Z,78.56
2019-03-10T02:03:20.863Z,78.35
2019-03-10T02:04:20.847Z,78.64
2019-03-10T02:05:20.848Z,79.03
2019-03-10T02:06:20.869Z,79.01
2019-03-10T02:07:20.890Z,79.12
2019-03-10T02:08:20.856Z,78.98
2019-03-10T02:09:20.860Z,78.91
2019-03-10T02:10:20.841Z,78.85
2019-03-10T02:11:20.856Z,78.92
2019-03-10T02:12:20.836Z,78.7
2019-03-10T02:13:20.858Z,79.01
2019-03-10T02:14:20.857Z,78.95
2019-03-10T02:15:20.857Z,78.8
2019-03-10T02:16:20.845Z,78.75
2019-03-10T02:17:20.857Z,78.98
2019-03-10T02:18:20.830Z,79.04
2019-03-10T02:19:20.838Z,79.35
2019-03-10T02:20:20.855Z,79.41
2019-03-10T02:21:20.831Z,79.47
2019-03-10T02:22:20.831Z,79.35
2019-03-10T02:23:20.832Z,79.47
2019-03-10T02:24:24.468Z,79.81
2019-03-10T02:25:20.900Z,79.58
2019-03-10T02:26:20.856Z,79.72
2019-03-10T02:27:20.843Z,80.43
2019-03-10T02:28:20.831Z,81.15
2019-03-10T02:29:20.907Z,81.01
2019-03-10T02:30:20.844Z,81.37
2019-03-10T02:31:20.815Z,81.03
2019-03-10T02:32:20.815Z,81.37
2019-03-10T02:33:20.816Z,81.75
2019-03-10T02:34:20.878Z,81.93
2019-03-10T02:35:20.813Z,81.4
2019-03-10T02:36:20.809Z,80.98
2019-03-10T02:37:20.815Z,81.51
2019-03-10T02:38:20.812Z,81.73
2019-03-10T02:39:20.811Z,81.84
2019-03-10T02:40:20.822Z,81.58
2019-03-10T02:41:20.813Z,81.76
2019-03-10T02:42:20.803Z,81.88
2019-03-10T02:43:20.825Z,82.06
2019-03-10T02:44:20.808Z,81.79
2019-03-10T02:45:20.820Z,81.8
2019-03-10T02:46:20.812Z,81.87
2019-03-10T02:47:22.247Z,81.67
2019-03-10T02:48:20.815Z,81.68
2019-03-10T02:49:20.798Z,81.84
2019-03-10T02:50:20.824Z,81.95
2019-03-10T02:51:20.930Z,81.88
2019-03-10T02:52:20.807Z,82.28
2019-03-10T02:53:20.837Z,82.09
2019-03-10T02:54:20.818Z,82.31
2019-03-10T02:55:20.838Z,82.2
2019-03-10T02:56:20.811Z,82.29
2019-03-10T02:57:20.817Z,82.24
2019-03-10T02:58:20.835Z,82
2019-03-10T02:59:20.799Z,81.83
2019-03-10T03:00:20.835Z,82.59
2019-03-10T03:01:20.795Z,82.22
2019-03-10T03:02:20.802Z,81.78
2019-03-10T03:03:20.765Z,81.83
2019-03-10T03:04:20.809Z,81.75
2019-03-10T03:05:20.800Z,82.71
2019-03-10T03:06:20.782Z,82.29
2019-03-10T03:07:20.792Z,82.53
2019-03-10T03:08:20.840Z,82.83
2019-03-10T03:09:20.789Z,82.8
2019-03-10T03:10:20.751Z,82.67
2019-03-10T03:11:20.760Z,82.81
2019-03-10T03:12:20.768Z,82.94
2019-03-10T03:13:20.787Z,83.2
2019-03-10T03:14:20.787Z,82.97
2019-03-10T03:15:20.748Z,82.88
2019-03-10T03:16:20.772Z,82.8
2019-03-10T03:17:20.748Z,82.81
2019-03-10T03:18:20.776Z,83.15
2019-03-10T03:19:20.748Z,83.17
2019-03-10T03:20:20.828Z,83.15
2019-03-10T03:21:20.779Z,82.56
2019-03-10T03:22:20.779Z,82.64
2019-03-10T03:23:20.742Z,83.38
2019-03-10T03:24:20.778Z,82.62
2019-03-10T03:25:20.753Z,83.08
2019-03-10T03:26:20.765Z,82.77
2019-03-10T03:27:20.735Z,82.61
2019-03-10T03:28:20.791Z,82.84
2019-03-10T03:29:20.778Z,83.69
2019-03-10T03:30:20.760Z,82.96
2019-03-10T03:31:20.742Z,82.95
2019-03-10T03:32:20.864Z,82.66
2019-03-10T03:33:20.788Z,83.52
2019-03-10T03:34:20.780Z,83.44
2019-03-10T03:35:20.747Z,83.09
2019-03-10T03:36:20.754Z,83.71
2019-03-10T03:37:20.806Z,83.26
2019-03-10T03:38:20.764Z,83.26
2019-03-10T03:39:20.736Z,83.6
2019-03-10T03:40:20.764Z,83.04
2019-03-10T03:41:20.743Z,83.41
2019-03-10T03:42:20.743Z,83.34
2019-03-10T03:43:20.714Z,83.6
2019-03-10T03:44:20.763Z,83.78
2019-03-10T03:45:20.735Z,83.56
2019-03-10T03:46:20.776Z,83.96
2019-03-10T03:47:20.754Z,84.12
2019-03-10T03:48:20.718Z,83.89
2019-03-10T03:49:20.707Z,84.53
2019-03-10T03:50:20.716Z,84.73
2019-03-10T03:51:20.746Z,85.15
2019-03-10T03:52:21.007Z,85.15
2019-03-10T03:53:20.758Z,84.79
2019-03-10T03:54:20.731Z,85.2
2019-03-10T03:55:20.705Z,85.23
2019-03-10T03:56:20.703Z,85.31
2019-03-10T03:57:20.718Z,85.79
2019-03-10T03:58:20.704Z,85.46
2019-03-10T03:59:20.697Z,86.1
2019-03-10T04:00:20.724Z,85.37
2019-03-10T04:01:20.705Z,86.07
2019-03-10T04:02:20.702Z,86.15
2019-03-10T04:03:20.701Z,86.66
2019-03-10T04:04:20.736Z,86.77
2019-03-10T04:05:20.711Z,86.94
2019-03-10T04:06:20.692Z,86.74
2019-03-10T04:07:20.727Z,86.7
2019-03-10T04:08:20.697Z,86.59
2019-03-10T04:09:20.715Z,86.82
2019-03-10T04:10:20.696Z,87.14
2019-03-10T04:11:20.681Z,86.81
2019-03-10T04:12:20.674Z,86.28
2019-03-10T04:13:20.891Z,86.83
2019-03-10T04:14:20.946Z,87.18
2019-03-10T04:15:20.671Z,86.96
2019-03-10T04:16:20.740Z,87
2019-03-10T04:17:20.698Z,87.07
2019-03-10T04:18:20.695Z,86.7
2019-03-10T04:19:20.676Z,86.07
2019-03-10T04:20:20.671Z,86.47
2019-03-10T04:21:20.651Z,86.41
2019-03-10T04:22:20.652Z,86.57
2019-03-10T04:23:20.683Z,86.7
2019-03-10T04:24:20.672Z,86.79
2019-03-10T04:25:20.741Z,86.29
2019-03-10T04:26:20.685Z,86.17
2019-03-10T04:27:20.674Z,86.47
2019-03-10T04:28:20.661Z,86.48
2019-03-10T04:29:22.054Z,86.15
2019-03-10T04:30:20.656Z,86.54
2019-03-10T04:31:20.673Z,86.69
2019-03-10T04:32:20.642Z,86.52
2019-03-10T04:33:20.645Z,86.12
2019-03-10T04:34:20.658Z,86.01
2019-03-10T04:35:20.817Z,86.3
2019-03-10T04:36:20.674Z,86.29
2019-03-10T04:37:20.649Z,86.12
2019-03-10T04:38:20.668Z,86.03
2019-03-10T04:39:20.671Z,86.24
2019-03-10T04:40:20.671Z,85.93
2019-03-10T04:41:20.638Z,86.41
2019-03-10T04:42:20.656Z,86.12
2019-03-10T04:43:20.745Z,86.32
2019-03-10T04:44:20.631Z,86.03
2019-03-10T04:45:20.665Z,85.75
2019-03-10T04:46:20.639Z,85.88
2019-03-10T04:47:20.629Z,86.29
2019-03-10T04:48:20.626Z,86.37
2019-03-10T04:49:20.643Z,86.49
2019-03-10T04:50:20.620Z,86
2019-03-10T04:51:20.626Z,86.32
2019-03-10T04:52:20.632Z,86.32
2019-03-10T04:53:20.639Z,86.14
2019-03-10T04:54:20.636Z,85.99
2019-03-10T04:55:20.658Z,85.88
2019-03-10T04:56:20.631Z,85.85
2019-03-10T04:57:20.624Z,85.96
2019-03-10T04:58:20.622Z,86.05
2019-03-10T04:59:20.607Z,86.24
2019-03-10T05:00:20.904Z,86.32
2019-03-10T05:01:20.633Z,86.3
2019-03-10T05:02:20.638Z,86.32
2019-03-10T05:03:20.623Z,86.19
2019-03-10T05:04:20.634Z,85.81
2019-03-10T05:05:20.629Z,86.36
2019-03-10T05:06:20.785Z,86.28
2019-03-10T05:07:20.773Z,86.41
2019-03-10T05:08:20.599Z,86.26
2019-03-10T05:09:20.608Z,86.29
2019-03-10T05:10:20.598Z,86.32
2019-03-10T05:11:20.593Z,86.32
2019-03-10T05:12:20.601Z,86.36
2019-03-10T05:13:20.600Z,86.17
2019-03-10T05:14:20.588Z,86.09
2019-03-10T05:15:20.632Z,86.47
2019-03-10T05:16:20.706Z,86.32
2019-03-10T05:17:20.596Z,86.22
2019-03-10T05:18:20.601Z,86.28
2019-03-10T05:19:20.586Z,86.27
2019-03-10T05:20:20.660Z,86.28
2019-03-10T05:21:20.611Z,86.25
2019-03-10T05:22:20.577Z,86.46
2019-03-10T05:23:20.583Z,86.34
2019-03-10T05:24:20.638Z,86.11
2019-03-10T05:25:20.569Z,85.99
2019-03-10T05:26:20.599Z,86.19
2019-03-10T05:27:20.586Z,86.63
2019-03-10T05:28:20.667Z,86.67
2019-03-10T05:29:20.600Z,86.45
2019-03-10T05:30:20.589Z,86.85
2019-03-10T05:31:20.686Z,86.7
2019-03-10T05:32:20.578Z,86.35
2019-03-10T05:33:20.574Z,86.45
2019-03-10T05:34:20.576Z,86.4
2019-03-10T05:35:20.589Z,86.41
2019-03-10T05:36:20.570Z,86.2
2019-03-10T05:37:20.563Z,86.24
2019-03-10T05:38:20.570Z,86.19
2019-03-10T05:39:20.555Z,86.1
2019-03-10T05:40:20.562Z,86.56
2019-03-10T05:41:20.568Z,86.28
2019-03-10T05:42:20.593Z,86.72
2019-03-10T05:43:20.567Z,87.03
2019-03-10T05:44:20.610Z,86.93
2019-03-10T05:45:20.564Z,86.9
2019-03-10T05:46:20.564Z,86.78
2019-03-10T05:47:20.550Z,86.91
2019-03-10T05:48:20.555Z,87.02
2019-03-10T05:49:20.574Z,86.88
2019-03-10T05:50:20.558Z,86.76
2019-03-10T05:51:20.552Z,86.85
2019-03-10T05:52:20.543Z,86.99
2019-03-10T05:53:20.551Z,87.49
2019-03-10T05:54:20.573Z,87.46
2019-03-10T05:55:20.573Z,87.49
2019-03-10T05:56:20.524Z,87.62
2019-03-10T05:57:20.552Z,87.64
2019-03-10T05:58:20.535Z,87.8
2019-03-10T05:59:20.573Z,87.53
2019-03-10T06:00:20.589Z,87.13
2019-03-10T06:01:20.548Z,87.71
2019-03-10T06:02:20.536Z,87.62
2019-03-10T06:03:20.552Z,87.35
2019-03-10T06:04:20.529Z,87.21
2019-03-10T06:05:20.551Z,87.6
2019-03-10T06:06:20.556Z,87.66
2019-03-10T06:07:20.519Z,87.91
2019-03-10T06:08:20.599Z,88.06
2019-03-10T06:09:20.530Z,87.81
2019-03-10T06:10:20.529Z,87.95
2019-03-10T06:11:20.596Z,88.22
2019-03-10T06:12:20.593Z,88.33
2019-03-10T06:13:20.545Z,88.26
2019-03-10T06:14:20.562Z,88.19
2019-03-10T06:15:20.601Z,87.98
2019-03-10T06:16:20.527Z,88.14
2019-03-10T06:17:21.794Z,88.46
2019-03-10T06:18:20.514Z,88.25
2019-03-10T06:19:20.675Z,88.63
2019-03-10T06:20:20.514Z,88.71
2019-03-10T06:21:20.508Z,88.97
2019-03-10T06:22:20.561Z,89.13
2019-03-10T06:23:20.546Z,88.93
2019-03-10T06:24:20.511Z,88.98
2019-03-10T06:25:20.529Z,89.04
2019-03-10T06:26:20.499Z,88.98
2019-03-10T06:27:20.511Z,88.9
2019-03-10T06:28:20.525Z,89.15
2019-03-10T06:29:20.543Z,89.01
2019-03-10T06:30:20.492Z,88.68
2019-03-10T06:31:20.559Z,88.6
2019-03-10T06:32:20.503Z,88.83
2019-03-10T06:33:20.624Z,88.63
2019-03-10T06:34:20.711Z,88.9
2019-03-10T06:35:20.489Z,89.27
2019-03-10T06:36:20.512Z,89.13
2019-03-10T06:37:20.590Z,88.67
2019-03-10T06:38:20.556Z,88.5
2019-03-10T06:39:20.488Z,88.85
2019-03-10T06:40:32.773Z,89.24
2019-03-10T06:41:20.517Z,88.96
2019-03-10T06:42:20.487Z,88.94
2019-03-10T06:43:20.486Z,88.73
2019-03-10T06:44:21.346Z,88.76
2019-03-10T06:45:20.476Z,88.71
2019-03-10T06:46:20.497Z,88.83
2019-03-10T06:47:20.459Z,89.36
2019-03-10T06:48:20.477Z,89.53
2019-03-10T06:49:20.468Z,89.52
2019-03-10T06:50:20.507Z,89.72
2019-03-10T06:51:20.466Z,89.44
2019-03-10T06:52:20.496Z,89.13
2019-03-10T06:53:20.461Z,88.89
2019-03-10T06:54:20.479Z,89.13
2019-03-10T06:55:20.523Z,89.29
2019-03-10T06:56:20.465Z,89.62
2019-03-10T06:57:20.481Z,89.51
2019-03-10T06:58:20.457Z,89.7
2019-03-10T06:59:20.482Z,89.86
2019-03-10T07:00:20.464Z,90.02
2019-03-10T07:01:20.485Z,90
2019-03-10T07:02:20.502Z,90.17
2019-03-10T07:03:20.469Z,90.05
2019-03-10T07:04:20.465Z,90.15
2019-03-10T07:05:20.473Z,90.53
2019-03-10T07:06:20.447Z,90.92
2019-03-10T07:07:20.450Z,90.92
2019-03-10T07:08:20.519Z,90.86
2019-03-10T07:09:20.481Z,90.51
2019-03-10T07:10:20.476Z,90.77
2019-03-10T07:11:20.437Z,90.61
2019-03-10T07:12:20.435Z,90.68
2019-03-10T07:13:20.446Z,91.12
2019-03-10T07:14:20.433Z,91.46
2019-03-10T07:15:20.448Z,91.38
2019-03-10T07:16:20.454Z,91.23
2019-03-10T07:17:20.679Z,91.05
2019-03-10T07:18:20.453Z,91.04
2019-03-10T07:19:20.447Z,91.08
2019-03-10T07:20:20.422Z,91.1
2019-03-10T07:21:20.457Z,91.53
2019-03-10T07:22:20.434Z,91.75
2019-03-10T07:23:20.425Z,91.58
2019-03-10T07:24:20.450Z,91.75
2019-03-10T07:25:20.464Z,91.34
2019-03-10T07:26:20.455Z,91.49
2019-03-10T07:27:20.450Z,91.52
2019-03-10T07:28:20.422Z,91.53
2019-03-10T07:29:20.415Z,92.04
2019-03-10T07:30:20.416Z,92.34
2019-03-10T07:31:20.416Z,92.03
2019-03-10T07:32:20.416Z,92.32
2019-03-10T07:33:20.480Z,92.4
2019-03-10T07:34:20.449Z,92.38
2019-03-10T07:35:20.416Z,92.25
2019-03-10T07:36:20.408Z,92.79
2019-03-10T07:37:20.406Z,93.24
2019-03-10T07:38:20.393Z,93.3
2019-03-10T07:39:20.447Z,93.26
2019-03-10T07:40:20.397Z,93.62
2019-03-10T07:41:20.431Z,93.74
2019-03-10T07:42:20.461Z,94
2019-03-10T07:43:20.416Z,93.96
2019-03-10T07:44:20.409Z,94.11
2019-03-10T07:45:20.393Z,93.86
2019-03-10T07:46:20.396Z,93.73
2019-03-10T07:47:20.452Z,93.38
2019-03-10T07:48:20.397Z,93.81
2019-03-10T07:49:20.472Z,94.04
2019-03-10T07:50:20.404Z,93.57
2019-03-10T07:51:20.386Z,93.4
2019-03-10T07:52:20.999Z,93.53
2019-03-10T07:53:20.378Z,93.21
2019-03-10T07:54:20.450Z,93.15
2019-03-10T07:55:20.357Z,93.16
2019-03-10T07:56:20.379Z,93.43
2019-03-10T07:57:20.381Z,93.2
2019-03-10T07:58:20.370Z,93.09
2019-03-10T07:59:20.377Z,92.81
2019-03-10T08:00:20.371Z,93.38
2019-03-10T08:01:20.462Z,93.24
2019-03-10T08:02:20.361Z,93.37
2019-03-10T08:03:20.373Z,93.39
2019-03-10T08:04:20.375Z,93.56
2019-03-10T08:05:20.404Z,93.38
2019-03-10T08:06:20.370Z,92.83
2019-03-10T08:07:20.396Z,93.24
2019-03-10T08:08:20.404Z,93.09
2019-03-10T08:09:20.397Z,92.71
2019-03-10T08:10:20.399Z,93.15
2019-03-10T08:11:20.367Z,93.31
2019-03-10T08:12:20.364Z,93.32
2019-03-10T08:13:20.384Z,93.6
2019-03-10T08:14:20.389Z,93.58
2019-03-10T08:15:20.457Z,93.39
2019-03-10T08:16:20.382Z,93.43
2019-03-10T08:17:20.436Z,93.21
2019-03-10T08:18:20.376Z,93.64
2019-03-10T08:19:20.354Z,93.86
2019-03-10T08:20:20.356Z,93.8
2019-03-10T08:21:20.372Z,93.71
2019-03-10T08:22:20.535Z,93.62
2019-03-10T08:23:20.399Z,93.65
2019-03-10T08:24:20.377Z,93.81
2019-03-10T08:25:20.399Z,93.59
2019-03-10T08:26:20.352Z,93.42
2019-03-10T08:27:20.359Z,93.5
2019-03-10T08:28:20.734Z,93.32
2019-03-10T08:29:20.343Z,93.49
2019-03-10T08:30:20.334Z,93.79
2019-03-10T08:31:20.338Z,93.57
2019-03-10T08:32:20.350Z,93.87
2019-03-10T08:33:20.362Z,93.71
2019-03-10T08:34:20.367Z,93.56
2019-03-10T08:35:20.336Z,93.77
2019-03-10T08:36:20.327Z,93.87
2019-03-10T08:37:20.327Z,93.42
2019-03-10T08:38:20.339Z,93.34
2019-03-10T08:39:20.340Z,93.51
2019-03-10T08:40:20.316Z,93.93
2019-03-10T08:41:20.332Z,93.61
2019-03-10T08:42:21.085Z,93.6
2019-03-10T08:43:20.312Z,93.66
2019-03-10T08:44:20.371Z,93.45
2019-03-10T08:45:20.328Z,93.79
2019-03-10T08:46:20.310Z,93.94
2019-03-10T08:47:20.358Z,93.29
2019-03-10T08:48:20.330Z,93.53
2019-03-10T08:49:20.323Z,93.72
2019-03-10T08:50:20.325Z,93.45
2019-03-10T08:51:20.301Z,93.5
2019-03-10T08:52:20.331Z,93.4
2019-03-10T08:53:20.316Z,93.01
2019-03-10T08:54:20.301Z,92.86
2019-03-10T08:55:20.297Z,93.35
2019-03-10T08:56:20.301Z,93.13
2019-03-10T08:57:20.303Z,93.25
2019-03-10T08:58:20.326Z,92.98
2019-03-10T08:59:20.330Z,92.76
2019-03-10T09:00:20.293Z,92.49
2019-03-10T09:01:20.303Z,92.74
2019-03-10T09:02:20.315Z,92.58
2019-03-10T09:03:20.287Z,92.56
2019-03-10T09:04:20.281Z,92.58
2019-03-10T09:05:20.298Z,92.97
2019-03-10T09:06:20.588Z,92.73
2019-03-10T09:07:20.269Z,93.15
2019-03-10T09:08:20.311Z,92.64
2019-03-10T09:09:20.359Z,92.68
2019-03-10T09:10:20.288Z,92.67
2019-03-10T09:11:20.273Z,92.48
2019-03-10T09:12:20.294Z,92.5
2019-03-10T09:13:20.268Z,92.15
2019-03-10T09:14:20.290Z,92.34
2019-03-10T09:15:20.306Z,92.49
2019-03-10T09:16:20.258Z,92.12
2019-03-10T09:17:20.263Z,92.25
2019-03-10T09:18:20.349Z,92.22
2019-03-10T09:19:20.290Z,92
2019-03-10T09:20:20.279Z,91.7
2019-03-10T09:21:20.264Z,92.23
2019-03-10T09:22:20.302Z,92.23
2019-03-10T09:23:20.272Z,91.89
2019-03-10T09:24:20.306Z,91.92
2019-03-10T09:25:20.284Z,91.77
2019-03-10T09:26:20.275Z,91.54
2019-03-10T09:27:20.288Z,91.85
2019-03-10T09:28:20.456Z,91.88
2019-03-10T09:29:20.281Z,91.5
2019-03-10T09:30:20.261Z,91.79
2019-03-10T09:31:20.271Z,91.82
2019-03-10T09:32:20.286Z,91.43
2019-03-10T09:33:20.356Z,91.91
2019-03-10T09:34:20.296Z,91.9
2019-03-10T09:35:20.270Z,91.51
2019-03-10T09:36:20.257Z,91.83
2019-03-10T09:37:20.272Z,91.88
2019-03-10T09:38:20.284Z,91.99
2019-03-10T09:39:20.315Z,91.44
2019-03-10T09:40:20.233Z,91.16
2019-03-10T09:41:20.242Z,91.06
2019-03-10T09:42:20.240Z,90.9
2019-03-10T09:43:20.246Z,90.95
2019-03-10T09:44:20.279Z,91
2019-03-10T09:45:20.279Z,90.94
2019-03-10T09:46:20.244Z,90.82
2019-03-10T09:47:20.293Z,90.8
2019-03-10T09:48:20.235Z,90.63
2019-03-10T09:49:20.464Z,90.74
2019-03-10T09:50:20.320Z,90.35
2019-03-10T09:51:20.244Z,90.48
2019-03-10T09:52:20.270Z,90.59
2019-03-10T09:53:20.336Z,90.58
2019-03-10T09:54:20.315Z,90.34
2019-03-10T09:55:20.234Z,89.45
2019-03-10T09:56:20.244Z,89.69
2019-03-10T09:57:20.269Z,89.78
2019-03-10T09:58:20.250Z,89.54
2019-03-10T09:59:20.239Z,89.39
2019-03-10T10:00:20.269Z,89.17
2019-03-10T10:01:20.327Z,88.96
2019-03-10T10:02:20.360Z,88.91
2019-03-10T10:03:20.289Z,89.01
2019-03-10T10:04:20.244Z,88.65
2019-03-10T10:05:20.210Z,88.8
2019-03-10T10:06:20.233Z,88.65
2019-03-10T10:07:20.223Z,88.19
2019-03-10T10:08:20.221Z,88.35
2019-03-10T10:09:20.254Z,88.52
2019-03-10T10:10:20.234Z,88.22
2019-03-10T10:11:20.246Z,88.49
2019-03-10T10:12:20.658Z,88.49
2019-03-10T10:13:20.257Z,88.31
2019-03-10T10:14:20.237Z,88.73
2019-03-10T10:15:20.220Z,88.34
2019-03-10T10:16:20.229Z,87.82
2019-03-10T10:17:20.231Z,87.93
2019-03-10T10:18:20.232Z,87.96
2019-03-10T10:19:20.203Z,87.53
2019-03-10T10:20:20.234Z,87.41
2019-03-10T10:21:20.215Z,87.69
2019-03-10T10:22:20.237Z,87.25
2019-03-10T10:23:20.222Z,87.52
2019-03-10T10:24:20.209Z,87.8
2019-03-10T10:25:20.211Z,87.6
2019-03-10T10:26:20.194Z,87.54
2019-03-10T10:27:20.460Z,87.11
2019-03-10T10:28:20.392Z,87.76
2019-03-10T10:29:20.210Z,88.09
2019-03-10T10:30:20.327Z,87.86
2019-03-10T10:31:20.289Z,87.2
2019-03-10T10:32:20.315Z,87.32
2019-03-10T10:33:20.439Z,86.56
2019-03-10T10:34:20.217Z,86.47
2019-03-10T10:35:20.172Z,86.33
2019-03-10T10:36:20.184Z,86.46
2019-03-10T10:37:20.199Z,86.35
2019-03-10T10:38:20.176Z,86.63
2019-03-10T10:39:20.241Z,85.8
2019-03-10T10:40:20.194Z,85.52
2019-03-10T10:41:20.207Z,85.67
2019-03-10T10:42:20.170Z,85.84
2019-03-10T10:43:20.152Z,85.15
2019-03-10T10:44:20.156Z,84.16
2019-03-10T10:45:20.179Z,83.79
2019-03-10T10:46:20.180Z,83.99
2019-03-10T10:47:20.183Z,84.26
2019-03-10T10:48:20.152Z,84.4
2019-03-10T10:49:20.221Z,83.56
2019-03-10T10:50:20.307Z,83.62
2019-03-10T10:51:20.204Z,83.82
2019-03-10T10:52:20.337Z,83.11
2019-03-10T10:53:21.821Z,82.81
2019-03-10T10:54:20.237Z,82.86
2019-03-10T10:55:20.407Z,83.09
2019-03-10T10:56:20.187Z,83.04
2019-03-10T10:57:20.308Z,83.46
2019-03-10T10:58:20.178Z,83.3
2019-03-10T10:59:20.160Z,83.75
2019-03-10T11:00:20.267Z,83.87
2019-03-10T11:01:20.168Z,83.32
2019-03-10T11:02:20.237Z,82.91
2019-03-10T11:03:20.194Z,82.16
2019-03-10T11:04:20.157Z,82.75
2019-03-10T11:05:20.284Z,83.28
2019-03-10T11:06:20.205Z,83.94
2019-03-10T11:07:20.140Z,83.41
2019-03-10T11:08:20.543Z,83.36
2019-03-10T11:09:20.169Z,83.69
2019-03-10T11:10:20.161Z,83.87
2019-03-10T11:11:20.169Z,83.85
2019-03-10T11:12:20.205Z,83.54
2019-03-10T11:13:20.186Z,83.41
2019-03-10T11:14:20.154Z,82.43
2019-03-10T11:15:20.159Z,82.21
2019-03-10T11:16:20.765Z,82.34
2019-03-10T11:17:20.208Z,82.03
2019-03-10T11:18:20.158Z,82.17
2019-03-10T11:19:20.135Z,81.8
2019-03-10T11:20:20.136Z,81.79
2019-03-10T11:21:20.124Z,81.63
2019-03-10T11:22:20.146Z,81.55
2019-03-10T11:23:20.114Z,81.39
2019-03-10T11:24:20.132Z,81.39
2019-03-10T11:25:20.103Z,81.55
2019-03-10T11:26:20.101Z,80.85
2019-03-10T11:27:20.151Z,81.2
2019-03-10T11:28:20.119Z,81.62
2019-03-10T11:29:20.252Z,81.84
2019-03-10T11:30:20.094Z,81.74
2019-03-10T11:31:20.199Z,81.17
2019-03-10T11:32:20.128Z,81.2
2019-03-10T11:33:20.217Z,81.77
2019-03-10T11:34:20.124Z,82.1
2019-03-10T11:35:20.101Z,82.03
2019-03-10T11:36:20.188Z,81.98
2019-03-10T11:37:20.424Z,82.49
2019-03-10T11:38:20.186Z,82.58
2019-03-10T11:39:20.142Z,82.27
2019-03-10T11:40:20.180Z,82.1
2019-03-10T11:41:20.133Z,81.88
2019-03-10T11:42:20.108Z,82.18
2019-03-10T11:43:23.087Z,82.58
2019-03-10T11:44:20.182Z,82
2019-03-10T11:45:20.111Z,82.23
2019-03-10T11:46:20.113Z,81.9
2019-03-10T11:47:20.110Z,81.16
2019-03-10T11:48:20.091Z,81.31
2019-03-10T11:49:20.140Z,81.29
2019-03-10T11:50:20.108Z,81.5
2019-03-10T11:51:20.123Z,81.13
2019-03-10T11:52:20.081Z,80.53
2019-03-10T11:53:20.079Z,81.06
2019-03-10T11:54:20.129Z,81.2
2019-03-10T11:55:20.379Z,81.35
2019-03-10T11:56:20.256Z,81.86
2019-03-10T11:57:20.134Z,81.4
2019-03-10T11:58:20.171Z,81.34
2019-03-10T11:59:20.113Z,81.8
2019-03-10T12:00:20.206Z,82.46
2019-03-10T12:01:20.070Z,82.62
2019-03-10T12:02:20.070Z,83.06
2019-03-10T12:03:20.067Z,83.06
2019-03-10T12:04:20.079Z,81.38
2019-03-10T12:05:20.061Z,81.88
2019-03-10T12:06:20.088Z,81.82
2019-03-10T12:07:20.085Z,81.67
2019-03-10T12:08:20.064Z,81.9
2019-03-10T12:09:20.131Z,82.11
2019-03-10T12:10:21.941Z,81.4
2019-03-10T12:11:20.092Z,80.56
2019-03-10T12:12:20.072Z,80.96
2019-03-10T12:13:20.068Z,79.61
2019-03-10T12:14:20.049Z,79.54
2019-03-10T12:15:20.089Z,78.25
2019-03-10T12:16:20.047Z,79.27
2019-03-10T12:17:20.127Z,79.14
2019-03-10T12:18:20.075Z,78.52
2019-03-10T12:19:20.041Z,78.1
2019-03-10T12:20:20.053Z,78.46
2019-03-10T12:21:20.389Z,78.14
2019-03-10T12:22:20.087Z,77.2
2019-03-10T12:23:20.072Z,77.27
2019-03-10T12:24:20.075Z,77.64
2019-03-10T12:25:20.047Z,76.18
2019-03-10T12:26:20.043Z,75.3
2019-03-10T12:27:20.150Z,75.24
2019-03-10T12:28:20.042Z,75.06
2019-03-10T12:29:20.092Z,75.21
2019-03-10T12:30:20.022Z,74.83
2019-03-10T12:31:20.053Z,74.02
2019-03-10T12:32:20.033Z,74.15
2019-03-10T12:33:20.221Z,74.16
2019-03-10T12:34:20.027Z,73.73
2019-03-10T12:35:20.027Z,72.7
2019-03-10T12:36:20.031Z,72.96
2019-03-10T12:37:20.049Z,72.48
2019-03-10T12:38:20.038Z,71.88
2019-03-10T12:39:20.056Z,72.31
2019-03-10T12:40:20.977Z,71.23
2019-03-10T12:41:20.038Z,71.62
2019-03-10T12:42:20.128Z,71.69
2019-03-10T12:43:20.023Z,71.52
2019-03-10T12:44:19.997Z,71.19
2019-03-10T12:45:20.017Z,72.12
2019-03-10T12:46:20.011Z,71.49
2019-03-10T12:47:19.992Z,71.39
2019-03-10T12:48:20.006Z,71.64
2019-03-10T12:49:20.000Z,71.37
2019-03-10T12:50:20.044Z,70.41
2019-03-10T12:51:20.008Z,70.59
2019-03-10T12:52:20.033Z,71.02
2019-03-10T12:53:19.999Z,69.36
2019-03-10T12:54:19.995Z,69.52
2019-03-10T12:55:19.976Z,68.27
2019-03-10T12:56:20.074Z,68.9